sensor_id;sensor_type;location;lat;lon;timestamp;temperature;humidity
51837;DHT22;38941;53.254;6.600;2023-09-19T00:13:19;14.80;99.90
51837;DHT22;38941;53.254;6.600;2023-09-19T00:15:20;14.70;99.90
51837;DHT22;38941;53.254;6.600;2023-09-19T00:17:21;14.70;99.90
51837;DHT22;38941;53.254;6.600;2023-09-19T00:19:22;14.60;99.90
51837;DHT22;38941;53.254;6.600;2023-09-19T00:21:24;14.60;99.90
51837;DHT22;38941;53.254;6.600;2023-09-19T00:23:25;14.60;99.90
51837;DHT22;38941;53.254;6.600;2023-09-19T00:25:26;14.50;99.90
51837;DHT22;38941;53.254;6.600;2023-09-19T00:27:28;14.60;99.90
51837;DHT22;38941;53.254;6.600;2023-09-19T00:29:29;14.60;99.90
51837;DHT22;38941;53.254;6.600;2023-09-19T00:31:31;14.60;99.90
51837;DHT22;38941;53.254;6.600;2023-09-19T00:33:32;14.60;99.90
51837;DHT22;38941;53.254;6.600;2023-09-19T00:35:34;14.60;99.90
51837;DHT22;38941;53.254;6.600;2023-09-19T00:37:35;14.60;99.90
51837;DHT22;38941;53.254;6.600;2023-09-19T00:39:36;14.60;99.90
51837;DHT22;38941;53.254;6.600;2023-09-19T00:41:37;14.60;99.90
51837;DHT22;38941;53.254;6.600;2023-09-19T00:43:38;14.60;99.90
51837;DHT22;38941;53.254;6.600;2023-09-19T00:45:45;14.60;99.90
51837;DHT22;38941;53.254;6.600;2023-09-19T00:47:49;14.50;99.90
51837;DHT22;38941;53.254;6.600;2023-09-19T00:49:51;14.60;99.90
51837;DHT22;38941;53.254;6.600;2023-09-19T00:51:53;14.00;99.90
51837;DHT22;38941;53.254;6.600;2023-09-19T00:53:55;14.50;99.90
51837;DHT22;38941;53.254;6.600;2023-09-19T00:57:57;14.50;99.90
51837;DHT22;38941;53.254;6.600;2023-09-19T01:00:00;14.40;99.90
51837;DHT22;38941;53.254;6.600;2023-09-19T01:30:18;14.00;99.90
51837;DHT22;38941;53.254;6.600;2023-09-19T01:32:25;13.90;99.90
51837;DHT22;38941;53.254;6.600;2023-09-19T01:34:27;13.90;99.90
51837;DHT22;38941;53.254;6.600;2023-09-19T01:36:29;13.90;99.90
51837;DHT22;38941;53.254;6.600;2023-09-19T01:38:30;13.90;99.90
51837;DHT22;38941;53.254;6.600;2023-09-19T01:40:33;13.90;99.90
51837;DHT22;38941;53.254;6.600;2023-09-19T01:49:50;13.80;99.90
51837;DHT22;38941;53.254;6.600;2023-09-19T01:52:05;13.80;99.90
51837;DHT22;38941;53.254;6.600;2023-09-19T01:54:12;13.20;99.90
51837;DHT22;38941;53.254;6.600;2023-09-19T01:56:22;13.80;99.90
51837;DHT22;38941;53.254;6.600;2023-09-19T01:58:29;13.80;99.90
51837;DHT22;38941;53.254;6.600;2023-09-19T02:00:34;14.70;99.90
51837;DHT22;38941;53.254;6.600;2023-09-19T02:02:37;13.80;99.90
51837;DHT22;38941;53.254;6.600;2023-09-19T02:04:38;13.70;99.90
51837;DHT22;38941;53.254;6.600;2023-09-19T02:06:42;13.70;99.90
51837;DHT22;38941;53.254;6.600;2023-09-19T02:08:43;13.80;99.90
51837;DHT22;38941;53.254;6.600;2023-09-19T02:10:45;13.70;99.90
51837;DHT22;38941;53.254;6.600;2023-09-19T02:12:50;14.80;99.90
51837;DHT22;38941;53.254;6.600;2023-09-19T02:14:51;13.70;99.90
51837;DHT22;38941;53.254;6.600;2023-09-19T07:11:49;13.70;99.90
51837;DHT22;38941;53.254;6.600;2023-09-19T07:13:52;14.80;99.90
51837;DHT22;38941;53.254;6.600;2023-09-19T07:15:53;14.70;99.90
51837;DHT22;38941;53.254;6.600;2023-09-19T07:17:55;14.70;99.90
51837;DHT22;38941;53.254;6.600;2023-09-19T07:19:56;14.70;99.90
51837;DHT22;38941;53.254;6.600;2023-09-19T07:21:59;14.70;99.90
51837;DHT22;38941;53.254;6.600;2023-09-19T07:24:04;14.90;99.90
51837;DHT22;38941;53.254;6.600;2023-09-19T07:26:05;14.80;99.90
51837;DHT22;38941;53.254;6.600;2023-09-19T07:28:06;14.90;99.90
51837;DHT22;38941;53.254;6.600;2023-09-19T07:30:07;14.90;99.90
51837;DHT22;38941;53.254;6.600;2023-09-19T07:32:08;14.90;99.90
51837;DHT22;38941;53.254;6.600;2023-09-19T07:34:10;15.10;99.90
51837;DHT22;38941;53.254;6.600;2023-09-19T07:36:11;15.00;99.90
51837;DHT22;38941;53.254;6.600;2023-09-19T07:38:14;15.00;99.90
51837;DHT22;38941;53.254;6.600;2023-09-19T07:40:15;15.00;99.90
51837;DHT22;38941;53.254;6.600;2023-09-19T07:42:16;15.10;99.90
51837;DHT22;38941;53.254;6.600;2023-09-19T07:44:18;15.10;99.90
51837;DHT22;38941;53.254;6.600;2023-09-19T07:46:19;15.20;99.90
51837;DHT22;38941;53.254;6.600;2023-09-19T07:48:21;15.30;99.90
51837;DHT22;38941;53.254;6.600;2023-09-19T07:50:22;15.60;99.90
51837;DHT22;38941;53.254;6.600;2023-09-19T07:52:23;15.70;99.90
51837;DHT22;38941;53.254;6.600;2023-09-19T07:54:24;16.00;99.90
51837;DHT22;38941;53.254;6.600;2023-09-19T07:56:25;16.00;99.90
51837;DHT22;38941;53.254;6.600;2023-09-19T07:58:28;15.90;99.90
51837;DHT22;38941;53.254;6.600;2023-09-19T08:00:29;15.90;99.90
51837;DHT22;38941;53.254;6.600;2023-09-19T08:02:33;15.90;99.90
51837;DHT22;38941;53.254;6.600;2023-09-19T08:04:34;15.90;99.90
51837;DHT22;38941;53.254;6.600;2023-09-19T08:06:35;16.00;99.90
51837;DHT22;38941;53.254;6.600;2023-09-19T08:08:36;16.20;99.90
51837;DHT22;38941;53.254;6.600;2023-09-19T08:10:40;16.50;99.90
51837;DHT22;38941;53.254;6.600;2023-09-19T08:12:43;16.80;99.90
51837;DHT22;38941;53.254;6.600;2023-09-19T08:14:47;17.20;99.90
51837;DHT22;38941;53.254;6.600;2023-09-19T08:41:14;17.60;99.90
51837;DHT22;38941;53.254;6.600;2023-09-19T08:50:02;20.30;99.90
51837;DHT22;38941;53.254;6.600;2023-09-19T08:52:16;19.80;99.90
51837;DHT22;38941;53.254;6.600;2023-09-19T08:54:35;19.80;99.90
51837;DHT22;38941;53.254;6.600;2023-09-19T09:04:58;19.80;99.90
51837;DHT22;38941;53.254;6.600;2023-09-19T09:06:59;19.10;99.90
51837;DHT22;38941;53.254;6.600;2023-09-19T09:09:01;18.80;99.90
51837;DHT22;38941;53.254;6.600;2023-09-19T09:11:03;18.70;99.90
51837;DHT22;38941;53.254;6.600;2023-09-19T09:13:09;18.60;99.90
51837;DHT22;38941;53.254;6.600;2023-09-19T09:15:10;18.70;99.90
51837;DHT22;38941;53.254;6.600;2023-09-19T09:17:13;18.60;99.90
51837;DHT22;38941;53.254;6.600;2023-09-19T09:19:14;18.50;99.90
51837;DHT22;38941;53.254;6.600;2023-09-19T09:21:15;18.60;99.90
51837;DHT22;38941;53.254;6.600;2023-09-19T09:23:17;18.70;99.90
51837;DHT22;38941;53.254;6.600;2023-09-19T09:25:17;18.60;99.90
51837;DHT22;38941;53.254;6.600;2023-09-19T09:27:18;18.60;99.90
51837;DHT22;38941;53.254;6.600;2023-09-19T09:29:40;18.70;99.90
51837;DHT22;38941;53.254;6.600;2023-09-19T09:31:41;18.70;99.90
51837;DHT22;38941;53.254;6.600;2023-09-19T09:33:53;18.70;99.90
51837;DHT22;38941;53.254;6.600;2023-09-19T09:35:58;18.80;99.90
51837;DHT22;38941;53.254;6.600;2023-09-19T09:38:03;19.10;99.90
51837;DHT22;38941;53.254;6.600;2023-09-19T09:40:08;19.20;99.90
51837;DHT22;38941;53.254;6.600;2023-09-19T09:42:35;19.10;99.90
51837;DHT22;38941;53.254;6.600;2023-09-19T09:44:39;18.90;99.90
51837;DHT22;38941;53.254;6.600;2023-09-19T09:46:44;18.60;99.90
51837;DHT22;38941;53.254;6.600;2023-09-19T09:51:12;18.40;99.90
51837;DHT22;38941;53.254;6.600;2023-09-19T09:53:25;18.30;99.90
51837;DHT22;38941;53.254;6.600;2023-09-19T09:55:26;18.10;99.90
51837;DHT22;38941;53.254;6.600;2023-09-19T09:57:27;18.20;99.90
51837;DHT22;38941;53.254;6.600;2023-09-19T09:59:54;18.20;99.90
51837;DHT22;38941;53.254;6.600;2023-09-19T10:02:01;18.20;99.90
51837;DHT22;38941;53.254;6.600;2023-09-19T10:04:03;18.20;99.90
51837;DHT22;38941;53.254;6.600;2023-09-19T10:06:05;19.10;99.90
51837;DHT22;38941;53.254;6.600;2023-09-19T10:08:25;18.20;99.90
51837;DHT22;38941;53.254;6.600;2023-09-19T10:12:54;18.60;99.90
51837;DHT22;38941;53.254;6.600;2023-09-19T10:15:03;18.70;99.90
51837;DHT22;38941;53.254;6.600;2023-09-19T10:17:10;19.10;99.90
51837;DHT22;38941;53.254;6.600;2023-09-19T10:19:15;19.40;99.90
51837;DHT22;38941;53.254;6.600;2023-09-19T10:21:16;19.40;99.90
51837;DHT22;38941;53.254;6.600;2023-09-19T10:23:22;19.40;99.90
51837;DHT22;38941;53.254;6.600;2023-09-19T10:25:29;19.60;99.90
51837;DHT22;38941;53.254;6.600;2023-09-19T10:27:31;19.50;99.90
51837;DHT22;38941;53.254;6.600;2023-09-19T10:29:39;19.60;99.90
51837;DHT22;38941;53.254;6.600;2023-09-19T10:31:42;19.60;99.90
51837;DHT22;38941;53.254;6.600;2023-09-19T10:33:49;19.30;99.90
51837;DHT22;38941;53.254;6.600;2023-09-19T10:35:51;19.40;99.90
51837;DHT22;38941;53.254;6.600;2023-09-19T10:37:54;19.20;99.90
51837;DHT22;38941;53.254;6.600;2023-09-19T10:39:57;19.20;99.90
51837;DHT22;38941;53.254;6.600;2023-09-19T10:42:02;19.10;99.90
51837;DHT22;38941;53.254;6.600;2023-09-19T10:44:06;19.10;99.90
51837;DHT22;38941;53.254;6.600;2023-09-19T10:46:08;19.10;99.90
51837;DHT22;38941;53.254;6.600;2023-09-19T10:48:11;19.20;99.90
51837;DHT22;38941;53.254;6.600;2023-09-19T10:50:22;19.20;99.90
51837;DHT22;38941;53.254;6.600;2023-09-19T10:52:25;19.30;99.90
51837;DHT22;38941;53.254;6.600;2023-09-19T10:54:30;19.30;99.90
51837;DHT22;38941;53.254;6.600;2023-09-19T10:56:38;19.20;99.90
51837;DHT22;38941;53.254;6.600;2023-09-19T10:58:42;19.20;99.90
51837;DHT22;38941;53.254;6.600;2023-09-19T11:00:58;19.10;99.90
51837;DHT22;38941;53.254;6.600;2023-09-19T11:05:19;18.70;99.90
51837;DHT22;38941;53.254;6.600;2023-09-19T11:07:24;18.70;99.90
51837;DHT22;38941;53.254;6.600;2023-09-19T11:09:52;18.90;99.90
51837;DHT22;38941;53.254;6.600;2023-09-19T11:11:59;19.10;99.90
51837;DHT22;38941;53.254;6.600;2023-09-19T11:14:29;19.20;99.90
51837;DHT22;38941;53.254;6.600;2023-09-19T11:16:30;18.90;99.90
51837;DHT22;38941;53.254;6.600;2023-09-19T11:20:41;18.60;99.90
51837;DHT22;38941;53.254;6.600;2023-09-19T11:27:34;18.60;99.90
51837;DHT22;38941;53.254;6.600;2023-09-19T11:29:36;18.60;99.90
51837;DHT22;38941;53.254;6.600;2023-09-19T11:31:42;18.60;99.90
51837;DHT22;38941;53.254;6.600;2023-09-19T11:33:44;18.60;99.90
51837;DHT22;38941;53.254;6.600;2023-09-19T11:38:04;18.50;99.90
51837;DHT22;38941;53.254;6.600;2023-09-19T11:40:09;18.50;99.90
51837;DHT22;38941;53.254;6.600;2023-09-19T11:42:41;18.50;99.90
51837;DHT22;38941;53.254;6.600;2023-09-19T11:48:52;18.70;99.90
51837;DHT22;38941;53.254;6.600;2023-09-19T11:50:53;18.70;99.90
51837;DHT22;38941;53.254;6.600;2023-09-19T11:52:54;18.70;99.90
51837;DHT22;38941;53.254;6.600;2023-09-19T11:54:56;18.70;99.90
51837;DHT22;38941;53.254;6.600;2023-09-19T11:56:59;17.80;99.90
51837;DHT22;38941;53.254;6.600;2023-09-19T11:59:00;18.60;99.90
51837;DHT22;38941;53.254;6.600;2023-09-19T12:01:02;18.60;99.90
51837;DHT22;38941;53.254;6.600;2023-09-19T12:03:09;18.70;99.90
51837;DHT22;38941;53.254;6.600;2023-09-19T12:05:12;18.70;99.90
51837;DHT22;38941;53.254;6.600;2023-09-19T12:07:14;18.60;99.90
51837;DHT22;38941;53.254;6.600;2023-09-19T12:09:19;18.60;99.90
51837;DHT22;38941;53.254;6.600;2023-09-19T12:11:22;18.50;99.90
51837;DHT22;38941;53.254;6.600;2023-09-19T12:13:24;18.30;99.90
51837;DHT22;38941;53.254;6.600;2023-09-19T12:15:25;18.20;99.90
51837;DHT22;38941;53.254;6.600;2023-09-19T12:17:41;18.20;99.90
51837;DHT22;38941;53.254;6.600;2023-09-19T12:19:51;18.20;99.90
51837;DHT22;38941;53.254;6.600;2023-09-19T12:22:02;18.20;99.90
51837;DHT22;38941;53.254;6.600;2023-09-19T12:24:11;18.20;99.90
51837;DHT22;38941;53.254;6.600;2023-09-19T12:26:13;18.20;99.90
51837;DHT22;38941;53.254;6.600;2023-09-19T12:28:15;18.20;99.90
51837;DHT22;38941;53.254;6.600;2023-09-19T12:30:17;18.20;99.90
51837;DHT22;38941;53.254;6.600;2023-09-19T12:32:36;18.20;99.90
51837;DHT22;38941;53.254;6.600;2023-09-19T12:34:40;18.10;99.90
51837;DHT22;38941;53.254;6.600;2023-09-19T12:36:45;18.10;99.90
51837;DHT22;38941;53.254;6.600;2023-09-19T12:38:48;17.90;99.90
51837;DHT22;38941;53.254;6.600;2023-09-19T12:40:49;17.80;99.90
51837;DHT22;38941;53.254;6.600;2023-09-19T12:42:53;17.60;99.90
51837;DHT22;38941;53.254;6.600;2023-09-19T12:44:56;18.40;99.90
51837;DHT22;38941;53.254;6.600;2023-09-19T12:46:57;17.70;99.90
51837;DHT22;38941;53.254;6.600;2023-09-19T12:49:19;17.70;99.90
51837;DHT22;38941;53.254;6.600;2023-09-19T12:51:20;17.80;99.90
51837;DHT22;38941;53.254;6.600;2023-09-19T12:53:26;17.90;99.90
51837;DHT22;38941;53.254;6.600;2023-09-19T12:55:31;17.90;99.90
51837;DHT22;38941;53.254;6.600;2023-09-19T12:57:34;18.00;99.90
51837;DHT22;38941;53.254;6.600;2023-09-19T12:59:36;18.20;99.90
51837;DHT22;38941;53.254;6.600;2023-09-19T13:01:36;18.30;99.90
51837;DHT22;38941;53.254;6.600;2023-09-19T13:03:43;18.40;99.90
51837;DHT22;38941;53.254;6.600;2023-09-19T13:05:50;18.10;99.90
51837;DHT22;38941;53.254;6.600;2023-09-19T13:07:52;18.10;99.90
51837;DHT22;38941;53.254;6.600;2023-09-19T13:10:04;18.10;99.90
51837;DHT22;38941;53.254;6.600;2023-09-19T13:12:34;18.20;99.90
51837;DHT22;38941;53.254;6.600;2023-09-19T13:14:37;18.10;99.90
51837;DHT22;38941;53.254;6.600;2023-09-19T13:17:02;18.00;99.90
51837;DHT22;38941;53.254;6.600;2023-09-19T13:19:08;18.10;99.90
51837;DHT22;38941;53.254;6.600;2023-09-19T13:21:09;16.80;99.90
51837;DHT22;38941;53.254;6.600;2023-09-19T13:23:28;18.10;99.90
51837;DHT22;38941;53.254;6.600;2023-09-19T13:25:29;18.10;99.90
51837;DHT22;38941;53.254;6.600;2023-09-19T13:27:30;18.30;99.90
51837;DHT22;38941;53.254;6.600;2023-09-19T13:31:32;18.00;99.90
51837;DHT22;38941;53.254;6.600;2023-09-19T13:33:34;17.90;99.90
51837;DHT22;38941;53.254;6.600;2023-09-19T13:35:36;17.90;99.90
51837;DHT22;38941;53.254;6.600;2023-09-19T13:37:39;17.70;99.90
51837;DHT22;38941;53.254;6.600;2023-09-19T13:39:43;17.60;99.90
51837;DHT22;38941;53.254;6.600;2023-09-19T13:41:48;17.80;99.90
51837;DHT22;38941;53.254;6.600;2023-09-19T13:43:48;17.80;99.90
51837;DHT22;38941;53.254;6.600;2023-09-19T13:45:49;17.90;99.90
51837;DHT22;38941;53.254;6.600;2023-09-19T13:47:50;17.70;99.90
51837;DHT22;38941;53.254;6.600;2023-09-19T13:49:51;17.70;99.90
51837;DHT22;38941;53.254;6.600;2023-09-19T13:51:54;17.70;99.90
51837;DHT22;38941;53.254;6.600;2023-09-19T13:53:56;17.70;99.90
51837;DHT22;38941;53.254;6.600;2023-09-19T13:55:56;17.70;99.90
51837;DHT22;38941;53.254;6.600;2023-09-19T13:57:57;17.70;99.90
51837;DHT22;38941;53.254;6.600;2023-09-19T14:00:00;17.70;99.90
51837;DHT22;38941;53.254;6.600;2023-09-19T14:02:01;17.80;99.90
51837;DHT22;38941;53.254;6.600;2023-09-19T14:04:04;17.90;99.90
51837;DHT22;38941;53.254;6.600;2023-09-19T14:06:06;18.00;99.90
51837;DHT22;38941;53.254;6.600;2023-09-19T14:08:07;18.10;99.90
51837;DHT22;38941;53.254;6.600;2023-09-19T14:10:09;18.00;99.90
51837;DHT22;38941;53.254;6.600;2023-09-19T14:12:11;18.10;99.90
51837;DHT22;38941;53.254;6.600;2023-09-19T14:14:11;17.90;99.90
51837;DHT22;38941;53.254;6.600;2023-09-19T14:16:12;18.10;99.90
51837;DHT22;38941;53.254;6.600;2023-09-19T14:18:13;18.90;99.90
51837;DHT22;38941;53.254;6.600;2023-09-19T14:20:14;18.80;99.90
51837;DHT22;38941;53.254;6.600;2023-09-19T14:22:15;18.70;99.90
51837;DHT22;38941;53.254;6.600;2023-09-19T14:26:18;18.30;99.90
51837;DHT22;38941;53.254;6.600;2023-09-19T14:28:19;18.20;99.90
51837;DHT22;38941;53.254;6.600;2023-09-19T14:30:20;18.30;99.90
51837;DHT22;38941;53.254;6.600;2023-09-19T14:32:21;18.30;99.90
51837;DHT22;38941;53.254;6.600;2023-09-19T14:34:22;18.30;99.90
51837;DHT22;38941;53.254;6.600;2023-09-19T14:36:23;18.40;99.90
51837;DHT22;38941;53.254;6.600;2023-09-19T14:38:25;18.40;99.90
51837;DHT22;38941;53.254;6.600;2023-09-19T14:42:27;18.60;99.90
51837;DHT22;38941;53.254;6.600;2023-09-19T14:44:28;18.50;99.90
51837;DHT22;38941;53.254;6.600;2023-09-19T14:46:29;18.30;99.90
51837;DHT22;38941;53.254;6.600;2023-09-19T14:54:36;18.40;99.90
51837;DHT22;38941;53.254;6.600;2023-09-19T14:56:42;18.40;99.90
51837;DHT22;38941;53.254;6.600;2023-09-19T14:58:42;18.20;99.90
51837;DHT22;38941;53.254;6.600;2023-09-19T15:00:43;18.10;99.90
51837;DHT22;38941;53.254;6.600;2023-09-19T15:02:46;18.00;99.90
51837;DHT22;38941;53.254;6.600;2023-09-19T15:04:48;18.00;99.90
51837;DHT22;38941;53.254;6.600;2023-09-19T15:06:51;18.00;99.90
51837;DHT22;38941;53.254;6.600;2023-09-19T15:08:55;17.90;99.90
51837;DHT22;38941;53.254;6.600;2023-09-19T15:10:56;17.90;99.90
51837;DHT22;38941;53.254;6.600;2023-09-19T15:12:58;17.90;99.90
51837;DHT22;38941;53.254;6.600;2023-09-19T15:14:59;17.80;99.90
51837;DHT22;38941;53.254;6.600;2023-09-19T15:17:00;17.90;99.90
51837;DHT22;38941;53.254;6.600;2023-09-19T15:19:06;17.80;99.90
51837;DHT22;38941;53.254;6.600;2023-09-19T15:21:11;17.80;99.90
51837;DHT22;38941;53.254;6.600;2023-09-19T15:23:12;17.90;99.90
51837;DHT22;38941;53.254;6.600;2023-09-19T15:25:13;17.70;99.90
51837;DHT22;38941;53.254;6.600;2023-09-19T15:27:14;17.70;99.90
51837;DHT22;38941;53.254;6.600;2023-09-19T15:29:15;17.70;99.90
51837;DHT22;38941;53.254;6.600;2023-09-19T15:31:16;17.60;99.90
51837;DHT22;38941;53.254;6.600;2023-09-19T15:33:17;17.50;99.90
51837;DHT22;38941;53.254;6.600;2023-09-19T15:35:18;17.40;99.90
51837;DHT22;38941;53.254;6.600;2023-09-19T15:37:19;17.40;99.90
51837;DHT22;38941;53.254;6.600;2023-09-19T15:39:20;17.40;99.90
51837;DHT22;38941;53.254;6.600;2023-09-19T15:43:25;17.40;99.90
51837;DHT22;38941;53.254;6.600;2023-09-19T15:45:26;17.10;99.90
51837;DHT22;38941;53.254;6.600;2023-09-19T15:47:27;17.00;99.90
51837;DHT22;38941;53.254;6.600;2023-09-19T15:49:28;16.90;99.90
51837;DHT22;38941;53.254;6.600;2023-09-19T15:51:29;16.90;99.90
51837;DHT22;38941;53.254;6.600;2023-09-19T15:53:49;16.90;99.90
51837;DHT22;38941;53.254;6.600;2023-09-19T15:55:52;16.80;99.90
51837;DHT22;38941;53.254;6.600;2023-09-19T15:57:52;17.20;99.90
51837;DHT22;38941;53.254;6.600;2023-09-19T15:59:54;16.90;99.90
51837;DHT22;38941;53.254;6.600;2023-09-19T16:01:54;17.90;99.90
51837;DHT22;38941;53.254;6.600;2023-09-19T16:05:56;17.10;99.90
51837;DHT22;38941;53.254;6.600;2023-09-19T16:07:57;17.10;99.90
51837;DHT22;38941;53.254;6.600;2023-09-19T16:10:00;16.90;99.90
51837;DHT22;38941;53.254;6.600;2023-09-19T16:12:01;17.10;99.90
51837;DHT22;38941;53.254;6.600;2023-09-19T16:14:03;16.90;99.90
51837;DHT22;38941;53.254;6.600;2023-09-19T16:16:05;17.10;99.90
51837;DHT22;38941;53.254;6.600;2023-09-19T16:18:07;17.80;99.90
51837;DHT22;38941;53.254;6.600;2023-09-19T16:20:08;17.00;99.90
51837;DHT22;38941;53.254;6.600;2023-09-19T16:22:13;18.00;99.90
51837;DHT22;38941;53.254;6.600;2023-09-19T16:24:14;17.00;99.90
51837;DHT22;38941;53.254;6.600;2023-09-19T16:26:18;17.50;99.90
51837;DHT22;38941;53.254;6.600;2023-09-19T16:28:22;17.50;99.90
51837;DHT22;38941;53.254;6.600;2023-09-19T16:30:23;17.80;99.90
51837;DHT22;38941;53.254;6.600;2023-09-19T16:32:26;17.50;99.90
51837;DHT22;38941;53.254;6.600;2023-09-19T16:34:27;16.90;99.90
51837;DHT22;38941;53.254;6.600;2023-09-19T16:36:28;16.90;99.90
51837;DHT22;38941;53.254;6.600;2023-09-19T16:38:29;16.30;99.90
51837;DHT22;38941;53.254;6.600;2023-09-19T16:40:32;17.60;99.90
51837;DHT22;38941;53.254;6.600;2023-09-19T16:42:35;16.90;99.90
51837;DHT22;38941;53.254;6.600;2023-09-19T16:44:36;16.90;99.90
51837;DHT22;38941;53.254;6.600;2023-09-19T16:46:37;17.20;99.90
51837;DHT22;38941;53.254;6.600;2023-09-19T16:48:40;17.00;99.90
51837;DHT22;38941;53.254;6.600;2023-09-19T16:50:41;16.80;99.90
51837;DHT22;38941;53.254;6.600;2023-09-19T16:52:43;16.90;99.90
51837;DHT22;38941;53.254;6.600;2023-09-19T16:54:45;16.80;99.90
51837;DHT22;38941;53.254;6.600;2023-09-19T16:56:45;17.00;99.90
51837;DHT22;38941;53.254;6.600;2023-09-19T16:58:48;16.70;99.90
51837;DHT22;38941;53.254;6.600;2023-09-19T17:00:51;16.70;99.90
51837;DHT22;38941;53.254;6.600;2023-09-19T17:02:51;16.90;99.90
51837;DHT22;38941;53.254;6.600;2023-09-19T17:04:52;18.00;99.90
51837;DHT22;38941;53.254;6.600;2023-09-19T17:06:55;17.20;99.90
51837;DHT22;38941;53.254;6.600;2023-09-19T17:08:57;16.60;99.90
51837;DHT22;38941;53.254;6.600;2023-09-19T17:11:01;16.70;99.90
51837;DHT22;38941;53.254;6.600;2023-09-19T17:13:03;16.50;99.90
51837;DHT22;38941;53.254;6.600;2023-09-19T17:15:07;16.50;99.90
51837;DHT22;38941;53.254;6.600;2023-09-19T17:17:08;16.40;99.90
51837;DHT22;38941;53.254;6.600;2023-09-19T17:19:10;16.50;99.90
51837;DHT22;38941;53.254;6.600;2023-09-19T17:21:12;16.40;99.90
51837;DHT22;38941;53.254;6.600;2023-09-19T17:23:14;16.60;99.90
51837;DHT22;38941;53.254;6.600;2023-09-19T17:25:15;16.60;99.90
51837;DHT22;38941;53.254;6.600;2023-09-19T17:27:42;16.60;99.90
51837;DHT22;38941;53.254;6.600;2023-09-19T17:29:43;16.30;99.90
51837;DHT22;38941;53.254;6.600;2023-09-19T17:31:46;16.40;99.90
51837;DHT22;38941;53.254;6.600;2023-09-19T17:33:49;16.30;99.90
51837;DHT22;38941;53.254;6.600;2023-09-19T17:36:03;16.30;99.90
51837;DHT22;38941;53.254;6.600;2023-09-19T17:38:06;16.30;99.90
51837;DHT22;38941;53.254;6.600;2023-09-19T17:40:10;16.30;99.90
51837;DHT22;38941;53.254;6.600;2023-09-19T17:42:11;15.50;99.90
51837;DHT22;38941;53.254;6.600;2023-09-19T17:44:13;16.30;99.90
51837;DHT22;38941;53.254;6.600;2023-09-19T17:46:16;16.30;99.90
51837;DHT22;38941;53.254;6.600;2023-09-19T17:48:18;16.30;99.90
51837;DHT22;38941;53.254;6.600;2023-09-19T17:50:19;16.30;99.90
51837;DHT22;38941;53.254;6.600;2023-09-19T17:52:22;16.20;99.90
51837;DHT22;38941;53.254;6.600;2023-09-19T17:54:23;16.30;99.90
51837;DHT22;38941;53.254;6.600;2023-09-19T17:56:25;16.30;99.90
51837;DHT22;38941;53.254;6.600;2023-09-19T17:58:27;16.30;99.90
51837;DHT22;38941;53.254;6.600;2023-09-19T18:00:28;16.30;99.90
51837;DHT22;38941;53.254;6.600;2023-09-19T18:02:29;16.30;99.90
51837;DHT22;38941;53.254;6.600;2023-09-19T18:04:32;17.20;99.90
51837;DHT22;38941;53.254;6.600;2023-09-19T18:06:35;16.20;99.90
51837;DHT22;38941;53.254;6.600;2023-09-19T18:08:41;16.40;99.90
51837;DHT22;38941;53.254;6.600;2023-09-19T18:10:42;17.30;99.90
51837;DHT22;38941;53.254;6.600;2023-09-19T18:12:43;16.20;99.90
51837;DHT22;38941;53.254;6.600;2023-09-19T18:14:45;16.10;99.90
51837;DHT22;38941;53.254;6.600;2023-09-19T18:16:46;16.10;99.90
51837;DHT22;38941;53.254;6.600;2023-09-19T18:18:48;17.40;99.90
51837;DHT22;38941;53.254;6.600;2023-09-19T18:20:50;16.20;99.90
51837;DHT22;38941;53.254;6.600;2023-09-19T18:22:52;16.10;99.90
51837;DHT22;38941;53.254;6.600;2023-09-19T18:24:54;16.10;99.90
51837;DHT22;38941;53.254;6.600;2023-09-19T18:26:55;16.00;99.90
51837;DHT22;38941;53.254;6.600;2023-09-19T18:28:59;16.00;99.90
51837;DHT22;38941;53.254;6.600;2023-09-19T18:31:05;16.10;99.90
51837;DHT22;38941;53.254;6.600;2023-09-19T18:33:07;16.00;99.90
51837;DHT22;38941;53.254;6.600;2023-09-19T18:35:08;16.00;99.90
51837;DHT22;38941;53.254;6.600;2023-09-19T18:37:08;17.00;99.90
51837;DHT22;38941;53.254;6.600;2023-09-19T18:39:11;15.90;99.90
51837;DHT22;38941;53.254;6.600;2023-09-19T18:41:15;15.90;99.90
51837;DHT22;38941;53.254;6.600;2023-09-19T18:43:16;15.90;99.90
51837;DHT22;38941;53.254;6.600;2023-09-19T18:45:17;15.90;99.90
51837;DHT22;38941;53.254;6.600;2023-09-19T18:47:18;15.90;99.90
51837;DHT22;38941;53.254;6.600;2023-09-19T18:49:23;17.00;99.90
51837;DHT22;38941;53.254;6.600;2023-09-19T18:51:24;16.10;99.90
51837;DHT22;38941;53.254;6.600;2023-09-19T18:53:25;16.00;99.90
51837;DHT22;38941;53.254;6.600;2023-09-19T18:55:27;15.90;99.90
51837;DHT22;38941;53.254;6.600;2023-09-19T18:57:28;16.00;99.90
51837;DHT22;38941;53.254;6.600;2023-09-19T18:59:29;16.00;99.90
51837;DHT22;38941;53.254;6.600;2023-09-19T19:01:30;15.90;99.90
51837;DHT22;38941;53.254;6.600;2023-09-19T19:03:32;16.10;99.90
51837;DHT22;38941;53.254;6.600;2023-09-19T19:05:34;15.90;99.90
51837;DHT22;38941;53.254;6.600;2023-09-19T19:07:48;16.00;99.90
51837;DHT22;38941;53.254;6.600;2023-09-19T19:09:50;15.90;99.90
51837;DHT22;38941;53.254;6.600;2023-09-19T19:11:54;16.00;99.90
51837;DHT22;38941;53.254;6.600;2023-09-19T19:13:58;17.00;99.90
51837;DHT22;38941;53.254;6.600;2023-09-19T19:15:59;15.80;99.90
51837;DHT22;38941;53.254;6.600;2023-09-19T19:18:01;15.90;99.90
51837;DHT22;38941;53.254;6.600;2023-09-19T19:20:03;15.90;99.90
51837;DHT22;38941;53.254;6.600;2023-09-19T19:22:06;17.00;99.90
51837;DHT22;38941;53.254;6.600;2023-09-19T19:24:07;16.10;99.90
51837;DHT22;38941;53.254;6.600;2023-09-19T19:26:10;15.90;99.90
51837;DHT22;38941;53.254;6.600;2023-09-19T19:28:11;15.90;99.90
51837;DHT22;38941;53.254;6.600;2023-09-19T19:30:13;15.90;99.90
51837;DHT22;38941;53.254;6.600;2023-09-19T19:32:17;15.80;99.90
51837;DHT22;38941;53.254;6.600;2023-09-19T19:34:18;15.90;99.90
51837;DHT22;38941;53.254;6.600;2023-09-19T19:36:19;15.90;99.90
51837;DHT22;38941;53.254;6.600;2023-09-19T19:38:23;15.80;99.90
51837;DHT22;38941;53.254;6.600;2023-09-19T19:40:29;15.90;99.90
51837;DHT22;38941;53.254;6.600;2023-09-19T19:42:30;15.90;99.90
51837;DHT22;38941;53.254;6.600;2023-09-19T19:44:31;16.00;99.90
51837;DHT22;38941;53.254;6.600;2023-09-19T19:46:32;16.00;99.90
51837;DHT22;38941;53.254;6.600;2023-09-19T19:48:33;15.90;99.90
51837;DHT22;38941;53.254;6.600;2023-09-19T19:50:38;15.90;99.90
51837;DHT22;38941;53.254;6.600;2023-09-19T19:52:39;15.80;99.90
51837;DHT22;38941;53.254;6.600;2023-09-19T19:54:41;16.10;99.90
51837;DHT22;38941;53.254;6.600;2023-09-19T19:56:41;16.00;99.90
51837;DHT22;38941;53.254;6.600;2023-09-19T19:58:42;15.90;99.90
51837;DHT22;38941;53.254;6.600;2023-09-19T20:00:44;16.00;99.90